createdAt,value
2019-04-25T00:01:26.398Z,31.25
2019-04-25T00:04:02.006Z,31.25
2019-04-25T00:06:37.272Z,29.48
2019-04-25T00:09:15.330Z,32.25
2019-04-25T00:11:49.700Z,31.30
2019-04-25T00:14:24.446Z,31.20
2019-04-25T00:16:58.552Z,30.05
2019-04-25T00:19:32.969Z,28.98
2019-04-25T00:22:16.708Z,29.00
2019-04-25T00:25:12.931Z,29.00
2019-04-25T00:27:37.206Z,32.75
2019-04-25T00:30:11.578Z,30.15
2019-04-25T00:32:46.081Z,28.87
2019-04-25T00:35:21.654Z,32.23
2019-04-25T00:37:55.888Z,31.12
2019-04-25T00:40:31.807Z,29.18
2019-04-25T00:43:07.718Z,29.00
2019-04-25T00:45:43.601Z,32.10
2019-04-25T00:48:18.337Z,28.85
2019-04-25T00:50:54.554Z,30.17
2019-04-25T00:53:28.520Z,31.93
2019-04-25T00:56:02.886Z,30.10
2019-04-25T00:58:58.672Z,33.35
2019-04-25T01:01:51.840Z,31.97
2019-04-25T01:04:27.638Z,30.85
2019-04-25T01:07:01.615Z,30.27
2019-04-25T01:09:36.157Z,30.52
2019-04-25T01:12:11.950Z,31.93
2019-04-25T01:14:46.525Z,31.45
2019-04-25T01:17:21.158Z,30.82
2019-04-25T01:19:57.915Z,30.50
2019-04-25T01:22:32.315Z,32.00
2019-04-25T01:25:06.627Z,32.70
2019-04-25T01:27:40.832Z,35.20
2019-04-25T01:30:18.612Z,37.85
2019-04-25T01:32:54.303Z,37.65
2019-04-25T01:35:44.915Z,33.75
2019-04-25T01:38:24.999Z,34.98
2019-04-25T01:41:21.324Z,37.78
2019-04-25T01:44:01.951Z,37.95
2019-04-25T01:46:36.624Z,33.45
2019-04-25T01:49:11.149Z,35.45
2019-04-25T01:51:45.727Z,35.25
2019-04-25T01:54:20.155Z,36.55
2019-04-25T01:56:56.133Z,36.42
2019-04-25T01:59:30.330Z,36.77
2019-04-25T02:02:06.738Z,35.90
2019-04-25T02:04:41.953Z,36.10
2019-04-25T02:07:16.577Z,38.13
2019-04-25T02:09:50.936Z,38.63
2019-04-25T02:12:49.951Z,40.85
2019-04-25T02:15:29.131Z,35.83
2019-04-25T02:18:03.797Z,34.78
2019-04-25T02:20:38.047Z,38.90
2019-04-25T02:23:11.979Z,39.00
2019-04-25T02:25:46.391Z,34.38
2019-04-25T02:28:24.106Z,36.75
2019-04-25T02:31:00.739Z,35.23
2019-04-25T02:33:34.738Z,37.90
2019-04-25T02:36:09.053Z,39.53
2019-04-25T02:38:44.151Z,42.00
2019-04-25T02:41:18.565Z,39.13
2019-04-25T02:43:57.902Z,40.00
2019-04-25T02:46:55.857Z,37.05
2019-04-25T02:49:40.829Z,40.08
2019-04-25T02:52:30.319Z,40.78
2019-04-25T02:55:10.496Z,41.35
2019-04-25T02:57:40.526Z,41.65
2019-04-25T03:00:25.020Z,40.28
2019-04-25T03:03:01.016Z,40.80
2019-04-25T03:05:35.851Z,41.63
2019-04-25T03:08:10.664Z,43.25
2019-04-25T03:10:45.002Z,42.15
2019-04-25T03:13:19.258Z,40.73
2019-04-25T03:15:55.747Z,41.42
2019-04-25T03:18:31.395Z,44.30
2019-04-25T03:21:16.951Z,44.73
2019-04-25T03:23:50.775Z,41.40
2019-04-25T03:26:25.439Z,43.17
2019-04-25T03:28:59.825Z,42.55
2019-04-25T03:31:34.968Z,44.15
2019-04-25T03:34:14.043Z,47.03
2019-04-25T03:36:45.614Z,42.43
2019-04-25T03:39:19.823Z,42.90
2019-04-25T03:41:54.053Z,42.27
2019-04-25T03:44:28.376Z,45.03
2019-04-25T03:47:05.878Z,40.88
2019-04-25T03:49:39.161Z,43.52
2019-04-25T03:52:14.204Z,40.95
2019-04-25T03:54:48.709Z,44.53
2019-04-25T03:57:23.885Z,46.13
2019-04-25T03:59:58.818Z,38.73
2019-04-25T04:02:34.377Z,45.30
2019-04-25T04:05:09.631Z,41.48
2019-04-25T04:07:44.186Z,39.05
2019-04-25T04:10:21.106Z,41.92
2019-04-25T04:12:55.359Z,40.50
2019-04-25T04:15:29.916Z,44.83
2019-04-25T04:18:17.225Z,44.27
2019-04-25T04:21:17.412Z,48.45
2019-04-25T04:24:01.191Z,46.23
2019-04-25T04:26:36.038Z,40.95
2019-04-25T04:29:12.432Z,41.88
2019-04-25T04:31:48.073Z,42.88
2019-04-25T04:34:23.569Z,38.50
2019-04-25T04:36:59.061Z,38.80
2019-04-25T04:39:33.971Z,39.75
2019-04-25T04:42:09.572Z,41.70
2019-04-25T04:44:44.524Z,51.70
2019-04-25T04:47:19.696Z,45.38
2019-04-25T04:49:54.792Z,46.25
2019-04-25T04:52:29.891Z,47.93
2019-04-25T04:55:08.403Z,50.55
2019-04-25T04:57:44.586Z,51.73
2019-04-25T05:00:19.458Z,61.37
2019-04-25T05:03:01.980Z,55.20
2019-04-25T05:06:01.028Z,46.98
2019-04-25T05:08:46.226Z,54.63
2019-04-25T05:11:20.964Z,45.05
2019-04-25T05:13:55.742Z,50.63
2019-04-25T05:16:30.639Z,41.92
2019-04-25T05:19:05.855Z,55.10
2019-04-25T05:21:40.736Z,62.95
2019-04-25T05:24:16.426Z,53.70
2019-04-25T05:26:53.989Z,58.17
2019-04-25T05:29:29.693Z,54.98
2019-04-25T05:32:04.845Z,59.98
2019-04-25T05:34:40.290Z,58.17
2019-04-25T05:37:15.515Z,55.48
2019-04-25T05:39:51.301Z,54.83
2019-04-25T05:42:44.658Z,50.88
2019-04-25T05:45:25.759Z,59.60
2019-04-25T05:48:00.383Z,52.25
2019-04-25T05:50:34.613Z,56.92
2019-04-25T05:53:08.975Z,55.08
2019-04-25T05:55:44.140Z,52.15
2019-04-25T05:58:20.450Z,52.43
2019-04-25T06:00:55.657Z,207.20
2019-04-25T06:03:29.959Z,150.12
2019-04-25T06:06:04.369Z,178.20
2019-04-25T06:08:44.197Z,154.93
2019-04-25T06:11:33.551Z,133.63
2019-04-25T06:14:10.057Z,126.55
2019-04-25T06:16:44.545Z,116.90
2019-04-25T06:19:40.378Z,111.10
2019-04-25T06:22:19.934Z,105.87
2019-04-25T06:25:06.087Z,101.00
2019-04-25T06:27:51.165Z,107.47
2019-04-25T06:30:27.775Z,99.80
2019-04-25T06:33:03.316Z,88.07
2019-04-25T06:35:37.753Z,89.85
2019-04-25T06:38:13.358Z,82.30
2019-04-25T06:40:49.011Z,84.25
2019-04-25T06:43:24.545Z,84.75
2019-04-25T06:46:16.796Z,81.57
2019-04-25T06:48:55.713Z,82.30
2019-04-25T06:51:48.570Z,72.70
2019-04-25T06:54:25.701Z,80.35
2019-04-25T06:57:00.270Z,80.50
2019-04-25T06:59:34.588Z,68.40
2019-04-25T07:02:09.534Z,72.70
2019-04-25T07:04:45.622Z,67.37
2019-04-25T07:07:20.960Z,89.22
2019-04-25T07:09:55.574Z,70.40
2019-04-25T07:12:32.473Z,71.82
2019-04-25T07:15:07.433Z,62.35
2019-04-25T07:17:43.639Z,73.60
2019-04-25T07:20:20.831Z,65.08
2019-04-25T07:22:55.606Z,60.52
2019-04-25T07:25:35.326Z,70.30
2019-04-25T07:28:39.567Z,66.20
2019-04-25T07:31:39.728Z,64.58
2019-04-25T07:34:17.817Z,65.25
2019-04-25T07:36:53.454Z,75.28
2019-04-25T07:39:27.790Z,65.17
2019-04-25T07:42:04.051Z,61.37
2019-04-25T07:44:49.835Z,75.10
2019-04-25T07:47:15.882Z,56.00
2019-04-25T07:49:50.630Z,59.20
2019-04-25T07:52:27.085Z,60.45
2019-04-25T07:55:01.439Z,61.65
2019-04-25T07:57:36.938Z,62.43
2019-04-25T08:00:15.850Z,55.58
2019-04-25T08:02:50.713Z,59.88
2019-04-25T08:05:25.017Z,54.90
2019-04-25T08:08:00.408Z,51.15
2019-04-25T08:10:56.702Z,49.63
2019-04-25T08:13:35.408Z,45.17
2019-04-25T08:16:11.240Z,47.40
2019-04-25T08:18:46.370Z,47.23
2019-04-25T08:21:23.887Z,47.48
2019-04-25T08:23:59.000Z,47.23
2019-04-25T08:26:35.032Z,47.40
2019-04-25T08:29:10.113Z,47.65
2019-04-25T08:31:45.297Z,41.23
2019-04-25T08:34:21.080Z,42.13
2019-04-25T08:36:55.330Z,37.03
2019-04-25T08:39:30.447Z,39.58
2019-04-25T08:42:04.682Z,41.75
2019-04-25T08:44:39.341Z,40.92
2019-04-25T08:47:14.449Z,39.75
2019-04-25T08:50:07.693Z,36.17
2019-04-25T08:52:42.854Z,40.67
2019-04-25T08:55:38.226Z,35.35
2019-04-25T08:58:23.661Z,35.83
2019-04-25T09:01:15.393Z,36.35
2019-04-25T09:04:05.165Z,31.20
2019-04-25T09:06:40.387Z,35.30
2019-04-25T09:09:15.052Z,35.58
2019-04-25T09:11:49.077Z,40.03
2019-04-25T09:14:24.544Z,36.10
2019-04-25T09:16:59.042Z,31.82
2019-04-25T09:19:35.869Z,36.05
2019-04-25T09:22:10.412Z,33.38
2019-04-25T09:24:48.136Z,34.23
2019-04-25T09:27:23.638Z,34.65
2019-04-25T09:29:58.378Z,28.07
2019-04-25T09:32:33.800Z,24.92
2019-04-25T09:35:09.360Z,28.80
2019-04-25T09:37:44.940Z,25.68
2019-04-25T09:40:20.141Z,23.65
2019-04-25T09:42:54.538Z,29.57
2019-04-25T09:45:50.653Z,23.98
2019-04-25T09:48:44.609Z,25.25
2019-04-25T09:51:50.747Z,25.80
2019-04-25T09:54:55.936Z,24.02
2019-04-25T09:57:55.137Z,35.88
2019-04-25T10:00:36.601Z,25.75
2019-04-25T10:03:10.981Z,24.67
2019-04-25T10:05:45.136Z,29.75
2019-04-25T10:08:20.926Z,26.27
2019-04-25T10:10:55.420Z,22.40
2019-04-25T10:13:30.179Z,30.95
2019-04-25T10:16:11.560Z,21.73
2019-04-25T10:18:47.803Z,19.92
2019-04-25T10:21:24.016Z,27.67
2019-04-25T10:23:58.420Z,17.90
2019-04-25T10:26:34.785Z,22.07
2019-04-25T10:29:09.670Z,18.20
2019-04-25T10:31:45.152Z,18.70
2019-04-25T10:34:19.725Z,18.67
2019-04-25T10:36:57.032Z,17.80
2019-04-25T10:39:33.824Z,18.17
2019-04-25T10:42:08.133Z,19.65
2019-04-25T10:44:42.187Z,18.40
2019-04-25T10:47:16.627Z,15.72
2019-04-25T10:49:53.299Z,14.98
2019-04-25T10:52:27.495Z,17.02
2019-04-25T10:55:04.465Z,15.20
2019-04-25T10:57:38.926Z,18.40
2019-04-25T11:00:20.125Z,14.10
2019-04-25T11:02:55.719Z,14.53
2019-04-25T11:05:30.064Z,15.88
2019-04-25T11:08:04.339Z,13.35
2019-04-25T11:10:38.647Z,16.52
2019-04-25T11:13:14.367Z,13.38
2019-04-25T11:15:49.776Z,15.13
2019-04-25T11:18:24.029Z,14.90
2019-04-25T11:20:59.240Z,14.73
2019-04-25T11:23:33.660Z,15.85
2019-04-25T11:26:08.359Z,16.60
2019-04-25T11:28:45.346Z,15.48
2019-04-25T11:31:28.323Z,16.48
2019-04-25T11:34:03.589Z,18.75
2019-04-25T11:36:38.111Z,13.53
2019-04-25T11:39:33.084Z,14.43
2019-04-25T11:42:13.098Z,16.20
2019-04-25T11:44:49.796Z,14.10
2019-04-25T11:47:24.411Z,15.15
2019-04-25T11:49:58.674Z,14.68
2019-04-25T11:52:33.631Z,11.97
2019-04-25T11:55:10.407Z,15.23
2019-04-25T11:57:48.677Z,13.40
2019-04-25T12:00:24.625Z,14.40
2019-04-25T12:02:58.953Z,15.72
2019-04-25T12:05:34.282Z,19.48
2019-04-25T12:08:09.111Z,15.90
2019-04-25T12:10:45.812Z,15.53
2019-04-25T12:13:19.273Z,16.57
2019-04-25T12:15:54.834Z,14.28
2019-04-25T12:18:29.077Z,14.20
2019-04-25T12:21:04.261Z,14.28
2019-04-25T12:23:39.658Z,15.85
2019-04-25T12:26:14.318Z,17.60
2019-04-25T12:28:49.305Z,14.95
2019-04-25T12:31:23.838Z,13.78
2019-04-25T12:33:58.039Z,14.05
2019-04-25T12:36:33.999Z,13.53
2019-04-25T12:39:10.125Z,15.43
2019-04-25T12:41:46.764Z,13.90
2019-04-25T12:44:49.240Z,19.80
2019-04-25T12:47:25.597Z,16.47
2019-04-25T12:49:59.547Z,22.82
2019-04-25T12:52:33.698Z,17.48
2019-04-25T12:55:10.342Z,19.12
2019-04-25T12:57:44.533Z,15.18
2019-04-25T13:00:24.325Z,18.37
2019-04-25T13:02:59.012Z,18.48
2019-04-25T13:05:34.224Z,15.95
2019-04-25T13:08:08.529Z,13.98
2019-04-25T13:10:44.359Z,17.75
2019-04-25T13:13:20.108Z,13.98
2019-04-25T13:15:54.331Z,23.07
2019-04-25T13:18:28.579Z,25.62
2019-04-25T13:21:03.530Z,20.32
2019-04-25T13:23:37.837Z,23.55
2019-04-25T13:26:12.079Z,23.05
2019-04-25T13:29:10.775Z,27.80
2019-04-25T13:32:03.502Z,60.50
2019-04-25T13:34:44.835Z,69.58
2019-04-25T13:37:19.221Z,75.03
2019-04-25T13:39:54.162Z,61.00
2019-04-25T13:42:28.392Z,56.85
2019-04-25T13:45:03.540Z,43.90
2019-04-25T13:47:39.228Z,42.45
2019-04-25T13:50:14.686Z,48.90
2019-04-25T13:52:49.119Z,48.55
2019-04-25T13:55:25.004Z,43.52
2019-04-25T13:57:59.320Z,49.15
2019-04-25T14:00:34.895Z,42.23
2019-04-25T14:03:09.500Z,40.67
2019-04-25T14:05:45.310Z,40.58
2019-04-25T14:08:20.896Z,49.27
2019-04-25T14:10:55.056Z,33.00
2019-04-25T14:13:30.129Z,46.92
2019-04-25T14:16:33.578Z,41.25
2019-04-25T14:19:22.529Z,40.10
2019-04-25T14:21:59.158Z,38.25
2019-04-25T14:24:35.703Z,35.98
2019-04-25T14:27:09.988Z,41.77
2019-04-25T14:29:45.360Z,33.23
2019-04-25T14:32:20.401Z,38.10
2019-04-25T14:34:55.034Z,32.42
2019-04-25T14:37:33.618Z,33.55
2019-04-25T14:40:07.021Z,38.83
2019-04-25T14:42:41.251Z,39.85
2019-04-25T14:45:15.724Z,34.67
2019-04-25T14:47:50.142Z,37.65
2019-04-25T14:50:25.522Z,38.38
2019-04-25T14:53:00.076Z,33.75
2019-04-25T14:55:51.491Z,35.35
2019-04-25T14:58:28.049Z,35.85
2019-04-25T15:01:02.635Z,32.78
2019-04-25T15:03:37.055Z,38.92
2019-04-25T15:06:12.757Z,34.35
2019-04-25T15:08:46.852Z,34.45
2019-04-25T15:11:21.152Z,32.00
2019-04-25T15:13:55.305Z,35.08
2019-04-25T15:16:29.543Z,32.85
2019-04-25T15:19:03.796Z,33.55
2019-04-25T15:21:38.114Z,36.68
2019-04-25T15:24:12.160Z,33.85
2019-04-25T15:26:46.339Z,32.98
2019-04-25T15:29:20.551Z,39.90
2019-04-25T15:31:56.010Z,33.40
2019-04-25T15:34:36.695Z,29.35
2019-04-25T15:37:17.056Z,39.83
2019-04-25T15:39:58.277Z,51.70
2019-04-25T15:42:48.539Z,45.25
2019-04-25T15:45:47.622Z,42.13
2019-04-25T15:48:21.837Z,44.42
2019-04-25T15:50:57.235Z,36.70
2019-04-25T15:53:31.613Z,42.67
2019-04-25T15:56:06.275Z,39.67
2019-04-25T15:58:40.360Z,42.33
2019-04-25T16:01:15.097Z,38.25
2019-04-25T16:03:49.214Z,34.08
2019-04-25T16:06:23.686Z,31.85
2019-04-25T16:08:58.174Z,32.25
2019-04-25T16:11:33.676Z,35.58
2019-04-25T16:14:08.088Z,34.08
2019-04-25T16:16:42.695Z,33.15
2019-04-25T16:19:17.042Z,27.55
2019-04-25T16:21:56.415Z,28.57
2019-04-25T16:24:30.642Z,31.42
2019-04-25T16:27:06.520Z,26.33
2019-04-25T16:29:40.729Z,29.82
2019-04-25T16:32:20.716Z,30.82
2019-04-25T16:34:55.380Z,28.05
2019-04-25T16:37:30.303Z,28.55
2019-04-25T16:40:05.061Z,27.60
2019-04-25T16:42:39.823Z,25.97
2019-04-25T16:45:14.492Z,21.48
2019-04-25T16:47:49.906Z,24.12
2019-04-25T16:50:24.210Z,22.90
2019-04-25T16:52:59.135Z,23.22
2019-04-25T16:55:34.215Z,21.40
2019-04-25T16:58:09.131Z,19.17
2019-04-25T17:00:54.573Z,20.60
2019-04-25T17:03:31.209Z,19.20
2019-04-25T17:06:05.912Z,19.20
2019-04-25T17:08:40.435Z,19.62
2019-04-25T17:11:15.421Z,17.45
2019-04-25T17:13:58.961Z,20.70
2019-04-25T17:16:54.541Z,23.83
2019-04-25T17:19:46.915Z,18.32
2019-04-25T17:22:21.520Z,25.95
2019-04-25T17:24:55.737Z,21.07
2019-04-25T17:27:31.771Z,19.55
2019-04-25T17:30:06.242Z,19.67
2019-04-25T17:32:57.138Z,24.27
2019-04-25T17:35:44.182Z,21.52
2019-04-25T17:38:22.696Z,20.57
2019-04-25T17:40:57.124Z,24.63
2019-04-25T17:43:32.005Z,30.55
2019-04-25T17:46:10.970Z,28.25
2019-04-25T17:48:45.235Z,31.73
2019-04-25T17:51:19.621Z,25.68
2019-04-25T17:53:53.755Z,23.98
2019-04-25T17:56:28.149Z,23.95
2019-04-25T17:59:02.754Z,27.55
2019-04-25T18:01:37.960Z,22.65
2019-04-25T18:04:12.399Z,23.50
2019-04-25T18:06:46.650Z,28.42
2019-04-25T18:09:21.045Z,22.15
2019-04-25T18:11:55.527Z,25.57
2019-04-25T18:14:29.506Z,24.82
2019-04-25T18:17:03.866Z,26.97
2019-04-25T18:19:45.487Z,23.45
2019-04-25T18:22:39.150Z,24.23
2019-04-25T18:25:26.980Z,25.37
2019-04-25T18:28:13.338Z,22.13
2019-04-25T18:30:48.008Z,27.32
2019-04-25T18:33:29.459Z,20.70
2019-04-25T18:36:13.472Z,21.62
2019-04-25T18:39:06.598Z,19.62
2019-04-25T18:41:50.215Z,23.15
2019-04-25T18:44:25.404Z,20.00
2019-04-25T18:47:01.044Z,26.70
2019-04-25T18:49:37.627Z,24.00
2019-04-25T18:52:26.545Z,22.45
2019-04-25T18:55:09.155Z,21.05
2019-04-25T18:57:47.337Z,22.27
2019-04-25T19:00:43.735Z,24.07
2019-04-25T19:03:38.138Z,20.92
2019-04-25T19:06:15.912Z,20.88
2019-04-25T19:08:52.525Z,25.95
2019-04-25T19:11:26.397Z,21.68
2019-04-25T19:14:00.651Z,25.68
2019-04-25T19:16:34.820Z,22.62
2019-04-25T19:19:09.214Z,25.88
2019-04-25T19:21:45.473Z,25.35
2019-04-25T19:24:19.863Z,20.88
2019-04-25T19:26:53.958Z,27.20
2019-04-25T19:29:28.304Z,24.67
2019-04-25T19:32:02.429Z,28.65
2019-04-25T19:34:36.497Z,23.90
2019-04-25T19:37:10.769Z,22.65
2019-04-25T19:39:49.816Z,25.90
2019-04-25T19:42:33.189Z,25.80
2019-04-25T19:45:07.808Z,28.25
2019-04-25T19:47:42.995Z,26.65
2019-04-25T19:50:17.439Z,21.40
2019-04-25T19:52:52.198Z,25.80
2019-04-25T19:55:26.197Z,24.60
2019-04-25T19:58:00.406Z,25.02
2019-04-25T20:00:37.034Z,22.20
2019-04-25T20:03:16.875Z,22.22
2019-04-25T20:05:56.841Z,25.40
2019-04-25T20:08:48.709Z,20.12
2019-04-25T20:11:29.772Z,24.20
2019-04-25T20:14:04.564Z,29.82
2019-04-25T20:16:48.143Z,23.00
2019-04-25T20:19:22.198Z,22.93
2019-04-25T20:21:56.722Z,21.40
2019-04-25T20:24:31.662Z,21.80
2019-04-25T20:27:06.246Z,20.75
2019-04-25T20:29:40.391Z,18.82
2019-04-25T20:32:14.502Z,21.40
2019-04-25T20:34:49.047Z,22.55
2019-04-25T20:37:23.541Z,22.30
2019-04-25T20:39:58.033Z,18.10
2019-04-25T20:42:32.400Z,21.40
2019-04-25T20:45:07.086Z,20.48
2019-04-25T20:47:41.352Z,20.60
2019-04-25T20:50:16.695Z,39.10
2019-04-25T20:52:51.046Z,31.02
2019-04-25T20:55:26.072Z,23.02
2019-04-25T20:58:00.005Z,23.87
2019-04-25T21:00:44.986Z,19.52
2019-04-25T21:03:19.485Z,24.15
2019-04-25T21:05:57.170Z,21.10
2019-04-25T21:08:31.525Z,23.92
2019-04-25T21:11:05.826Z,24.25
2019-04-25T21:13:57.229Z,25.70
2019-04-25T21:16:56.490Z,22.13
2019-04-25T21:19:33.173Z,23.32
2019-04-25T21:22:07.671Z,23.10
2019-04-25T21:24:41.956Z,22.52
2019-04-25T21:27:16.873Z,29.07
2019-04-25T21:29:52.133Z,26.48
2019-04-25T21:32:26.435Z,23.47
2019-04-25T21:35:01.291Z,20.57
2019-04-25T21:37:37.328Z,23.67
2019-04-25T21:40:18.852Z,29.07
2019-04-25T21:43:01.433Z,26.52
2019-04-25T21:45:36.439Z,23.87
2019-04-25T21:48:10.935Z,27.20
2019-04-25T21:50:45.400Z,24.30
2019-04-25T21:53:19.590Z,26.10
2019-04-25T21:55:54.471Z,25.10
2019-04-25T21:58:30.294Z,29.75
2019-04-25T22:01:18.458Z,29.80
2019-04-25T22:03:53.007Z,42.85
2019-04-25T22:06:28.581Z,38.65
2019-04-25T22:09:03.240Z,32.93
2019-04-25T22:11:38.963Z,29.57
2019-04-25T22:14:13.818Z,34.15
2019-04-25T22:16:48.588Z,30.95
2019-04-25T22:19:23.437Z,23.50
2019-04-25T22:21:58.563Z,25.77
2019-04-25T22:24:33.234Z,28.60
2019-04-25T22:27:10.868Z,25.55
2019-04-25T22:29:47.653Z,27.73
2019-04-25T22:32:55.859Z,27.02
2019-04-25T22:35:43.879Z,26.80
2019-04-25T22:38:18.249Z,30.23
2019-04-25T22:40:52.578Z,27.95
2019-04-25T22:43:27.690Z,24.25
2019-04-25T22:46:02.261Z,27.42
2019-04-25T22:48:51.709Z,24.85
2019-04-25T22:51:25.868Z,23.40
2019-04-25T22:54:00.975Z,24.02
2019-04-25T22:56:36.025Z,26.35
2019-04-25T22:59:11.157Z,27.87
2019-04-25T23:02:16.338Z,24.52
2019-04-25T23:05:12.160Z,23.67
2019-04-25T23:07:44.700Z,26.07
2019-04-25T23:10:19.454Z,23.02
2019-04-25T23:12:53.930Z,23.57
2019-04-25T23:15:28.115Z,25.30
2019-04-25T23:18:02.897Z,24.77
2019-04-25T23:20:38.334Z,25.25
2019-04-25T23:23:13.800Z,24.37
2019-04-25T23:26:03.536Z,26.02
2019-04-25T23:28:41.782Z,23.38
2019-04-25T23:31:22.891Z,22.00
2019-04-25T23:33:57.060Z,23.32
2019-04-25T23:36:31.192Z,20.20
2019-04-25T23:39:09.441Z,24.50
2019-04-25T23:41:44.098Z,23.07
2019-04-25T23:44:18.460Z,25.97
2019-04-25T23:46:53.234Z,23.52
2019-04-25T23:49:27.399Z,22.65
2019-04-25T23:52:01.897Z,24.90
2019-04-25T23:54:35.963Z,21.77
2019-04-25T23:57:11.066Z,23.30
2019-04-25T23:59:46.647Z,27.73
